Time;durP1;ratioP1;P1;durP2;ratioP2;P2;SDS_P1;SDS_P2;PMS_P1;PMS_P2;Temp;Humidity;BMP_temperature;BMP_pressure;BME280_temperature;BME280_humidity;BME280_pressure;Samples;Min_cycle;Max_cycle;Signal;HPM_P1;HPM_P2
2022/06/04 00:01:26;;;;;;;14.23;6.18;;;11.30;99.90;;;;;;5065179;28;20068;-81
2022/06/04 00:03:52;;;;;;;23.20;6.68;;;11.40;99.90;;;;;;5049413;28;20032;-78
2022/06/04 00:06:18;;;;;;;16.23;6.63;;;11.40;99.90;;;;;;5066666;28;20044;-80
2022/06/04 00:08:44;;;;;;;17.13;6.95;;;11.40;99.90;;;;;;5065652;28;20040;-79
2022/06/04 00:16:41;;;;;;;17.15;8.25;;;11.40;99.90;;;;;;5060955;28;20058;-80
2022/06/04 00:19:07;;;;;;;18.25;8.52;;;11.30;99.90;;;;;;5060663;28;20044;-80
2022/06/04 00:21:33;;;;;;;21.08;8.98;;;11.30;99.90;;;;;;5064732;28;20383;-79
2022/06/04 00:23:59;;;;;;;22.40;9.07;;;11.20;99.90;;;;;;5061776;28;20043;-80
2022/06/04 00:26:24;;;;;;;22.95;9.27;;;11.20;99.90;;;;;;5074429;28;20114;-79
2022/06/04 00:28:50;;;;;;;26.98;10.07;;;11.20;99.90;;;;;;5093125;28;20048;-79
2022/06/04 00:31:17;;;;;;;20.33;8.50;;;11.20;99.90;;;;;;5083261;28;20405;-78
2022/06/04 00:33:43;;;;;;;18.40;8.77;;;11.20;99.90;;;;;;5054332;28;20059;-79
2022/06/04 00:36:09;;;;;;;19.88;8.57;;;11.20;99.90;;;;;;5066361;28;20754;-79
2022/06/04 00:38:35;;;;;;;24.20;8.88;;;11.20;99.90;;;;;;5058383;28;20114;-80
2022/06/04 00:41:24;;;;;;;17.85;7.55;;;11.10;99.90;;;;;;5056303;28;20436;-79
2022/06/04 00:44:01;;;;;;;17.80;8.75;;;11.10;99.90;;;;;;5081419;28;20032;-79
2022/06/04 00:46:39;;;;;;;19.38;8.32;;;11.10;99.90;;;;;;5057321;28;20040;-78
2022/06/04 00:49:06;;;;;;;23.70;8.57;;;11.10;99.90;;;;;;5058777;28;20498;-77
2022/06/04 00:51:32;;;;;;;16.95;7.78;;;11.10;99.90;;;;;;5051236;28;20438;-77
2022/06/04 00:53:58;;;;;;;20.20;8.15;;;11.10;99.90;;;;;;5062843;28;20044;-78
2022/06/04 00:56:37;;;;;;;25.52;9.10;;;11.20;99.90;;;;;;5077760;28;20032;-77
2022/06/04 00:59:27;;;;;;;17.48;7.72;;;11.10;99.90;;;;;;5084105;28;20052;-78
2022/06/04 01:02:19;;;;;;;17.77;8.25;;;11.10;99.90;;;;;;5056811;28;20398;-78
2022/06/04 01:05:13;;;;;;;21.75;8.35;;;11.00;99.90;;;;;;5060370;28;20134;-79
2022/06/04 01:07:53;;;;;;;20.30;8.40;;;11.10;99.90;;;;;;5059401;28;20040;-80
2022/06/04 01:10:21;;;;;;;20.08;8.90;;;11.10;99.90;;;;;;5065423;28;20064;-80
2022/06/04 01:12:50;;;;;;;19.45;8.52;;;11.10;99.90;;;;;;5063345;28;20128;-80
2022/06/04 01:15:26;;;;;;;18.45;8.30;;;11.00;99.90;;;;;;5068484;28;20086;-79
2022/06/04 01:18:25;;;;;;;19.08;8.73;;;11.10;99.90;;;;;;5058783;28;20044;-79
2022/06/04 01:21:06;;;;;;;25.00;8.70;;;11.00;99.90;;;;;;5063785;28;20096;-78
2022/06/04 01:23:52;;;;;;;15.95;6.88;;;11.00;99.90;;;;;;5057377;28;20066;-79
2022/06/04 01:26:46;;;;;;;16.73;7.75;;;11.00;99.90;;;;;;4962256;28;20050;-81
2022/06/04 01:29:21;;;;;;;15.20;6.43;;;10.90;99.90;;;;;;4964759;28;20040;-81
2022/06/04 01:31:51;;;;;;;16.83;7.43;;;11.20;99.90;;;;;;4954171;28;20581;-79
2022/06/04 01:34:22;;;;;;;16.80;7.32;;;11.00;99.90;;;;;;4946459;28;20055;-79
2022/06/04 01:36:58;;;;;;;15.88;7.75;;;10.90;99.90;;;;;;4949774;28;20441;-79
2022/06/04 01:39:27;;;;;;;15.93;6.70;;;10.90;99.90;;;;;;4948116;28;20417;-78
2022/06/04 01:41:59;;;;;;;25.55;7.13;;;10.90;99.90;;;;;;4952902;28;20053;-79
2022/06/04 01:44:38;;;;;;;19.65;6.80;;;11.00;99.90;;;;;;4970267;28;20410;-79
2022/06/04 01:47:05;;;;;;;23.55;7.43;;;10.90;99.90;;;;;;4981035;28;20042;-78
2022/06/04 01:49:38;;;;;;;15.18;7.03;;;10.90;99.90;;;;;;4954001;28;20496;-79
2022/06/04 01:52:14;;;;;;;17.27;7.10;;;10.80;99.90;;;;;;4966468;28;20074;-80
2022/06/04 01:54:49;;;;;;;17.80;7.53;;;10.80;99.90;;;;;;4970307;28;20034;-78
2022/06/04 01:57:23;;;;;;;18.67;7.10;;;10.90;99.90;;;;;;4970350;28;20169;-78
2022/06/04 01:59:54;;;;;;;16.88;7.72;;;10.70;99.90;;;;;;4954650;28;20097;-79
2022/06/04 02:02:26;;;;;;;15.30;6.88;;;10.70;99.90;;;;;;4972884;28;20158;-80
2022/06/04 02:04:57;;;;;;;11.73;6.60;;;10.70;99.90;;;;;;5050291;28;20059;-78
2022/06/04 02:07:40;;;;;;;19.00;7.15;;;10.70;99.90;;;;;;5068667;28;20084;-79
2022/06/04 02:10:24;;;;;;;18.33;7.03;;;10.60;99.90;;;;;;5044087;28;20069;-78
2022/06/04 02:12:53;;;;;;;16.20;7.13;;;10.60;99.90;;;;;;5072475;28;20493;-80
2022/06/04 02:15:22;;;;;;;17.63;7.75;;;11.00;99.90;;;;;;5069947;28;20047;-78
2022/06/04 02:17:57;;;;;;;15.15;7.70;;;10.50;99.90;;;;;;5057572;28;20101;-78
2022/06/04 02:20:26;;;;;;;18.77;7.53;;;10.50;99.90;;;;;;5048560;28;20036;-79
2022/06/04 02:22:53;;;;;;;16.63;7.55;;;10.40;99.90;;;;;;5052714;28;20055;-79
2022/06/04 02:25:21;;;;;;;20.65;7.43;;;10.50;99.90;;;;;;5049053;28;20107;-79
2022/06/04 02:27:49;;;;;;;18.75;7.40;;;10.40;99.90;;;;;;5065335;28;20066;-79
2022/06/04 02:30:17;;;;;;;18.67;7.30;;;10.50;99.90;;;;;;5060686;28;21261;-79
2022/06/04 02:32:58;;;;;;;15.68;7.55;;;10.50;99.90;;;;;;5056635;28;20080;-78
2022/06/04 02:36:08;;;;;;;18.13;7.47;;;10.50;99.90;;;;;;5068006;28;20048;-80
2022/06/04 02:38:47;;;;;;;17.88;7.05;;;10.40;99.90;;;;;;4950259;28;20043;-78
2022/06/04 02:41:16;;;;;;;16.02;7.53;;;10.50;99.90;;;;;;4971964;28;20042;-78
2022/06/04 02:44:07;;;;;;;12.48;7.20;;;10.50;99.90;;;;;;4975301;28;20072;-78
2022/06/04 02:46:50;;;;;;;22.77;7.80;;;10.50;99.90;;;;;;4960505;28;20122;-79
2022/06/04 02:49:44;;;;;;;14.68;7.15;;;10.50;99.90;;;;;;4970727;28;20039;-79
2022/06/04 02:52:14;;;;;;;17.48;6.82;;;10.50;99.90;;;;;;4948068;28;20129;-80
2022/06/04 02:54:51;;;;;;;13.30;6.85;;;10.50;99.90;;;;;;4922562;28;20047;-79
2022/06/04 02:57:17;;;;;;;18.27;7.55;;;10.50;99.90;;;;;;4953982;28;20054;-79
2022/06/04 02:59:45;;;;;;;14.50;7.65;;;10.60;99.90;;;;;;4969554;28;21584;-80
2022/06/04 03:02:14;;;;;;;18.55;7.35;;;10.50;99.90;;;;;;4955659;28;20038;-79
2022/06/04 03:04:47;;;;;;;14.23;7.68;;;10.60;99.90;;;;;;4970673;28;20097;-79
2022/06/04 03:07:18;;;;;;;13.82;7.32;;;10.60;99.90;;;;;;4953670;28;20043;-80
2022/06/04 03:09:44;;;;;;;25.70;7.80;;;10.60;99.90;;;;;;4939562;28;20442;-78
2022/06/04 03:12:14;;;;;;;16.23;7.72;;;10.60;99.90;;;;;;4994043;28;20387;-80
2022/06/04 03:14:40;;;;;;;13.75;7.95;;;10.60;99.90;;;;;;5095189;28;20039;-80
2022/06/04 03:17:11;;;;;;;20.20;8.50;;;10.60;99.90;;;;;;5092435;28;20079;-80
2022/06/04 03:19:36;;;;;;;15.38;7.63;;;10.60;99.90;;;;;;5059349;28;20046;-78
2022/06/04 03:22:02;;;;;;;17.77;7.45;;;10.60;99.90;;;;;;5060934;28;20036;-79
2022/06/04 03:24:28;;;;;;;17.02;7.45;;;10.60;99.90;;;;;;5069338;28;20036;-80
2022/06/04 03:26:54;;;;;;;17.88;8.27;;;10.60;99.90;;;;;;5084447;28;20059;-80
2022/06/04 03:29:20;;;;;;;13.38;7.63;;;10.60;99.90;;;;;;5067244;28;20047;-79
2022/06/04 03:31:46;;;;;;;18.45;8.00;;;10.60;99.90;;;;;;5058540;28;20117;-80
2022/06/04 03:34:15;;;;;;;14.90;7.53;;;10.70;99.90;;;;;;5090133;28;20093;-79
2022/06/04 03:36:41;;;;;;;16.02;7.70;;;10.70;99.90;;;;;;5054850;28;20040;-80
2022/06/04 03:39:08;;;;;;;18.45;8.27;;;10.70;99.90;;;;;;5058662;28;20052;-79
2022/06/04 03:41:37;;;;;;;18.98;7.80;;;10.60;99.90;;;;;;5067228;28;20106;-80
2022/06/04 03:44:03;;;;;;;14.82;7.38;;;10.70;99.90;;;;;;5065689;28;20118;-76
2022/06/04 03:46:29;;;;;;;13.35;7.10;;;10.60;99.90;;;;;;5089313;28;20027;-78
2022/06/04 03:48:57;;;;;;;16.13;7.53;;;10.70;99.90;;;;;;5096988;28;20054;-79
2022/06/04 03:51:25;;;;;;;12.80;7.22;;;10.70;99.90;;;;;;5058832;28;20093;-79
2022/06/04 03:53:51;;;;;;;14.50;6.70;;;10.70;99.90;;;;;;5080480;28;20071;-79
2022/06/04 03:56:18;;;;;;;18.75;6.15;;;10.70;99.90;;;;;;5083724;28;20153;-80
2022/06/04 03:58:43;;;;;;;11.93;6.18;;;10.80;99.90;;;;;;5057314;28;20052;-80
2022/06/04 04:01:21;;;;;;;12.10;6.55;;;10.70;99.90;;;;;;5062250;28;20107;-80
2022/06/04 04:03:47;;;;;;;14.75;5.93;;;10.80;99.90;;;;;;5065404;28;20040;-79
2022/06/04 04:06:19;;;;;;;9.23;5.43;;;10.90;99.90;;;;;;5072849;28;20383;-80
2022/06/04 04:08:45;;;;;;;12.82;5.38;;;11.00;99.90;;;;;;5054819;28;20372;-79
2022/06/04 04:11:16;;;;;;;11.32;6.07;;;10.90;99.90;;;;;;5060429;28;20047;-78
2022/06/04 04:13:44;;;;;;;14.40;5.50;;;10.90;99.90;;;;;;5084693;28;20032;-79
2022/06/04 04:16:15;;;;;;;7.03;4.68;;;11.00;99.90;;;;;;5073868;28;20048;-80
2022/06/04 04:18:41;;;;;;;11.02;5.60;;;11.00;99.90;;;;;;5078777;28;20086;-80
2022/06/04 04:21:10;;;;;;;9.82;5.05;;;11.00;99.90;;;;;;5076155;28;20054;-79
2022/06/04 04:23:37;;;;;;;12.25;5.47;;;11.00;99.90;;;;;;5079186;28;20070;-79
2022/06/04 04:26:05;;;;;;;10.63;5.03;;;11.30;99.90;;;;;;5095574;28;20091;-80
2022/06/04 04:28:31;;;;;;;9.25;5.10;;;11.30;99.90;;;;;;5041976;28;20153;-79
2022/06/04 04:30:57;;;;;;;7.75;5.07;;;11.50;99.90;;;;;;5074860;28;20048;-78
2022/06/04 04:33:23;;;;;;;9.85;4.65;;;12.20;99.90;;;;;;5082294;28;20044;-78
2022/06/04 04:35:49;;;;;;;11.30;4.70;;;12.80;99.90;;;;;;5073720;28;20487;-80
2022/06/04 04:38:21;;;;;;;6.93;4.32;;;13.50;99.90;;;;;;5076352;28;20039;-82
2022/06/04 04:40:48;;;;;;;12.45;4.38;;;13.80;99.90;;;;;;5082186;28;20048;-80
2022/06/04 04:43:14;;;;;;;9.32;4.45;;;14.20;99.90;;;;;;5056342;28;20383;-81
2022/06/04 04:45:43;;;;;;;6.85;4.10;;;14.20;99.90;;;;;;5071965;28;20488;-80
2022/06/04 04:48:09;;;;;;;8.98;3.95;;;14.50;99.90;;;;;;5061918;28;20127;-81
2022/06/04 04:50:38;;;;;;;10.25;3.85;;;14.60;99.90;;;;;;5066247;28;20033;-80
2022/06/04 04:53:09;;;;;;;14.30;4.00;;;14.90;99.90;;;;;;5052251;28;20067;-80
2022/06/04 04:55:38;;;;;;;8.90;3.92;;;14.50;99.90;;;;;;5068194;28;20037;-80
2022/06/04 04:58:06;;;;;;;10.35;4.20;;;13.70;99.90;;;;;;5054547;28;20041;-80
2022/06/04 05:00:32;;;;;;;14.15;4.53;;;13.20;99.90;;;;;;5066205;28;20174;-80
2022/06/04 05:02:59;;;;;;;12.63;4.80;;;12.70;99.90;;;;;;5070941;28;20036;-81
2022/06/04 05:05:25;;;;;;;8.10;4.43;;;12.60;99.90;;;;;;5069496;28;20434;-80
2022/06/04 05:07:51;;;;;;;11.07;4.80;;;12.50;99.90;;;;;;5061438;28;20369;-80
2022/06/04 05:10:16;;;;;;;10.00;4.53;;;12.50;99.90;;;;;;5041077;28;20139;-78
2022/06/04 05:12:44;;;;;;;16.35;4.97;;;12.40;99.90;;;;;;5080069;28;20051;-78
2022/06/04 05:15:11;;;;;;;6.82;4.28;;;12.40;99.90;;;;;;5067845;28;20032;-77
2022/06/04 05:17:37;;;;;;;11.82;4.60;;;12.30;99.90;;;;;;5072456;28;20067;-78
2022/06/04 05:20:04;;;;;;;8.63;4.30;;;12.60;99.90;;;;;;5069646;28;20031;-79
2022/06/04 05:22:30;;;;;;;7.30;4.03;;;12.50;99.90;;;;;;5070464;28;20119;-79
2022/06/04 05:24:56;;;;;;;13.02;4.45;;;12.60;99.90;;;;;;5066682;28;20150;-79
2022/06/04 05:27:21;;;;;;;7.00;4.55;;;12.50;99.90;;;;;;5053361;28;20054;-79
2022/06/04 05:29:47;;;;;;;6.18;4.28;;;12.60;99.90;;;;;;5068533;28;20043;-80
2022/06/04 05:32:13;;;;;;;7.32;4.70;;;12.80;99.90;;;;;;5071001;28;20036;-78
2022/06/04 05:34:39;;;;;;;10.27;4.95;;;12.70;99.90;;;;;;5056867;28;20120;-81
2022/06/04 05:37:07;;;;;;;8.82;4.57;;;12.70;99.90;;;;;;5088624;28;20124;-81
2022/06/04 05:39:32;;;;;;;11.15;4.10;;;12.70;99.90;;;;;;5081202;28;20368;-82
2022/06/04 05:41:59;;;;;;;11.88;5.57;;;12.70;99.90;;;;;;5073057;28;20035;-81
2022/06/04 05:44:26;;;;;;;9.10;4.95;;;12.80;99.90;;;;;;5088447;28;20032;-79
2022/06/04 05:46:52;;;;;;;9.00;5.13;;;12.70;99.90;;;;;;5048735;28;20056;-80
2022/06/04 05:49:19;;;;;;;8.27;4.63;;;12.80;99.90;;;;;;5064170;28;20056;-81
2022/06/04 05:51:45;;;;;;;8.23;4.07;;;12.80;99.90;;;;;;5080317;28;20044;-79
2022/06/04 05:54:14;;;;;;;7.88;4.10;;;12.80;99.90;;;;;;5049185;28;20055;-80
2022/06/04 05:56:43;;;;;;;11.73;4.32;;;12.80;99.90;;;;;;5067805;28;20052;-80
2022/06/04 05:59:12;;;;;;;7.38;4.43;;;12.90;99.90;;;;;;5057050;28;20432;-82
2022/06/04 06:01:40;;;;;;;9.95;4.68;;;12.90;99.90;;;;;;5059693;28;20131;-78
2022/06/04 06:04:08;;;;;;;10.00;4.63;;;13.00;99.90;;;;;;5060502;28;20071;-78
2022/06/04 06:06:37;;;;;;;7.82;4.43;;;13.10;99.90;;;;;;5068814;28;20487;-79
2022/06/04 06:09:06;;;;;;;9.77;4.32;;;13.10;99.90;;;;;;5048250;28;20059;-78
2022/06/04 06:11:32;;;;;;;9.65;4.72;;;13.10;99.90;;;;;;5065687;28;20075;-80
2022/06/04 06:13:58;;;;;;;6.65;4.28;;;13.10;99.90;;;;;;5072502;28;20071;-79
2022/06/04 06:16:27;;;;;;;9.70;4.40;;;13.20;99.90;;;;;;5075824;28;20781;-79
2022/06/04 06:18:54;;;;;;;8.45;4.85;;;13.20;99.90;;;;;;5080542;28;20052;-78
2022/06/04 06:21:26;;;;;;;8.00;4.25;;;13.40;99.90;;;;;;5061349;28;20037;-79
2022/06/04 06:23:52;;;;;;;11.25;4.97;;;13.40;99.90;;;;;;5058803;28;20040;-78
2022/06/04 06:26:21;;;;;;;6.28;4.45;;;13.60;99.90;;;;;;5065742;28;20079;-79
2022/06/04 06:28:47;;;;;;;10.95;4.75;;;13.60;99.90;;;;;;5054565;28;20056;-79
2022/06/04 06:31:17;;;;;;;8.07;4.47;;;13.70;99.90;;;;;;5039408;28;20045;-79
2022/06/04 06:33:43;;;;;;;8.38;4.05;;;13.80;99.90;;;;;;5052244;28;20095;-80
2022/06/04 06:36:12;;;;;;;5.90;3.95;;;13.90;99.90;;;;;;5075410;28;20493;-78
2022/06/04 06:38:39;;;;;;;7.30;3.90;;;13.90;99.90;;;;;;5061781;28;20055;-80
2022/06/04 06:41:06;;;;;;;8.00;3.63;;;13.90;99.90;;;;;;5068350;28;20110;-76
2022/06/04 06:46:08;;;;;;;10.50;4.22;;;13.90;99.90;;;;;;5061702;28;20052;-79
2022/06/04 06:48:35;;;;;;;;;;;13.70;99.90;;;;;;5062452;28;20048;-78
2022/06/04 06:51:10;;;;;;;11.27;4.40;;;13.70;99.90;;;;;;5057310;28;20001;-78
2022/06/04 06:53:35;;;;;;;6.10;3.83;;;13.60;99.90;;;;;;5082538;28;20127;-80
2022/06/04 06:56:13;;;;;;;8.43;4.13;;;13.60;99.90;;;;;;5048924;28;20139;-79
2022/06/04 06:58:39;;;;;;;8.32;4.15;;;13.50;99.90;;;;;;5061074;28;20126;-78
2022/06/04 07:01:06;;;;;;;8.35;4.47;;;13.50;99.90;;;;;;5051948;28;20130;-82
2022/06/04 07:03:32;;;;;;;8.07;4.40;;;13.50;99.90;;;;;;5057861;28;20031;-78
2022/06/04 07:05:57;;;;;;;8.75;4.28;;;13.40;99.90;;;;;;5076493;28;20040;-79
2022/06/04 07:08:23;;;;;;;8.38;3.85;;;13.50;99.90;;;;;;5049369;28;20058;-79
2022/06/04 07:10:49;;;;;;;10.63;3.90;;;13.70;99.90;;;;;;5073174;28;20390;-81
2022/06/04 07:13:15;;;;;;;17.30;7.05;;;13.70;99.90;;;;;;5067915;28;20447;-78
2022/06/04 07:15:42;;;;;;;7.65;4.13;;;13.80;99.90;;;;;;5049505;28;20446;-79
2022/06/04 07:18:13;;;;;;;6.15;3.95;;;13.90;99.90;;;;;;5057300;28;20052;-79
2022/06/04 07:20:40;;;;;;;7.25;4.03;;;14.00;99.90;;;;;;5053884;28;20075;-78
2022/06/04 07:23:06;;;;;;;7.40;4.05;;;14.10;99.90;;;;;;5077890;28;20068;-75
2022/06/04 07:25:32;;;;;;;7.88;3.58;;;14.30;99.90;;;;;;5074513;28;20071;-77
2022/06/04 07:27:59;;;;;;;6.82;3.47;;;14.30;99.90;;;;;;5051680;28;20060;-73
2022/06/04 07:30:24;;;;;;;8.27;3.75;;;14.40;99.90;;;;;;5062580;28;20052;-78
2022/06/04 07:32:51;;;;;;;11.07;4.53;;;14.50;99.90;;;;;;5063755;28;20058;-78
2022/06/04 07:35:18;;;;;;;8.13;4.13;;;14.60;99.90;;;;;;5065822;28;20056;-76
2022/06/04 07:37:43;;;;;;;5.15;3.55;;;14.80;99.90;;;;;;5058611;28;20040;-77
2022/06/04 07:40:10;;;;;;;6.32;3.88;;;14.80;99.90;;;;;;5074951;28;20063;-77
2022/06/04 07:42:37;;;;;;;8.02;3.65;;;14.90;99.90;;;;;;5091291;28;20116;-79
2022/06/04 07:45:03;;;;;;;10.65;4.03;;;15.00;99.90;;;;;;5050387;28;20137;-78
2022/06/04 07:47:29;;;;;;;7.25;3.45;;;14.90;99.90;;;;;;5069971;28;20048;-78
2022/06/04 07:49:56;;;;;;;5.32;3.10;;;15.00;99.90;;;;;;5073109;28;20051;-79
2022/06/04 07:52:22;;;;;;;7.30;3.33;;;15.00;99.90;;;;;;5059741;28;20036;-78
2022/06/04 07:54:47;;;;;;;7.00;3.30;;;15.00;99.90;;;;;;5065168;28;20369;-81
2022/06/04 07:57:15;;;;;;;5.35;2.80;;;15.10;99.90;;;;;;5053660;28;20135;-82
2022/06/04 07:59:41;;;;;;;4.85;2.90;;;15.10;99.90;;;;;;5049046;28;20056;-79
2022/06/04 08:05:50;;;;;;;6.38;2.83;;;15.20;99.90;;;;;;5084523;28;20158;-76
2022/06/04 08:08:16;;;;;;;6.47;3.15;;;15.30;99.90;;;;;;5068303;28;20502;-75
2022/06/04 08:10:48;;;;;;;9.00;3.20;;;15.30;99.90;;;;;;5077205;28;20032;-73
2022/06/04 08:15:49;;;;;;;4.85;3.10;;;15.40;99.90;;;;;;5069663;28;20046;-76
2022/06/04 08:18:16;;;;;;;5.18;2.90;;;15.70;99.90;;;;;;5058183;28;20053;-75
2022/06/04 08:20:43;;;;;;;6.00;3.05;;;15.60;99.90;;;;;;5048398;28;20041;-75
2022/06/04 08:23:10;;;;;;;6.53;3.35;;;15.70;99.90;;;;;;5044750;28;20055;-75
2022/06/04 08:25:44;;;;;;;5.75;3.35;;;15.80;99.90;;;;;;5077277;28;20055;-78
2022/06/04 08:28:10;;;;;;;5.95;2.95;;;15.70;99.90;;;;;;5064893;28;20045;-79
2022/06/04 08:30:36;;;;;;;7.22;3.28;;;15.70;99.90;;;;;;5081508;28;20513;-78
2022/06/04 08:33:03;;;;;;;6.05;2.95;;;15.70;99.90;;;;;;5061504;28;20044;-78
2022/06/04 08:35:29;;;;;;;8.02;3.08;;;15.70;99.90;;;;;;5054523;28;20139;-79
2022/06/04 08:37:55;;;;;;;6.55;3.22;;;15.70;99.90;;;;;;5057045;28;20127;-79
2022/06/04 08:40:27;;;;;;;5.78;3.13;;;15.70;99.90;;;;;;5066499;28;20453;-81
2022/06/04 09:20:43;;;;;;;7.57;2.80;;;16.30;99.90;;;;;;5524372;22;20065;-78
2022/06/04 09:23:14;;;;;;;5.63;2.85;;;16.10;99.90;;;;;;4987871;28;20434;-78
2022/06/04 09:25:45;;;;;;;4.38;2.88;;;16.20;99.90;;;;;;5011176;28;20146;-77
2022/06/04 09:28:22;;;;;;;4.80;2.70;;;16.30;99.90;;;;;;5006150;28;21669;-76
2022/06/04 09:31:00;;;;;;;5.75;2.60;;;16.30;99.90;;;;;;5006042;28;20045;-77
2022/06/04 09:33:32;;;;;;;6.97;3.10;;;16.50;99.90;;;;;;5005330;28;22039;-76
2022/06/04 09:36:04;;;;;;;5.53;2.70;;;16.60;99.90;;;;;;5005382;28;20072;-81
2022/06/04 09:38:33;;;;;;;5.53;2.95;;;16.60;99.90;;;;;;5004352;28;20049;-82
2022/06/04 09:41:05;;;;;;;6.32;3.35;;;16.60;99.90;;;;;;4992210;28;20068;-80
2022/06/04 09:43:33;;;;;;;7.05;3.00;;;16.70;99.90;;;;;;5009185;28;20091;-80
2022/06/04 09:46:04;;;;;;;7.50;3.05;;;16.70;99.90;;;;;;4992899;28;20045;-84
2022/06/04 09:48:37;;;;;;;6.78;3.00;;;16.60;99.90;;;;;;4994887;28;20061;-84
2022/06/04 09:51:08;;;;;;;4.32;2.90;;;16.50;99.90;;;;;;5024220;28;20519;-83
2022/06/04 09:53:41;;;;;;;7.55;3.35;;;16.60;99.90;;;;;;4998786;28;20041;-83
2022/06/04 09:56:26;;;;;;;5.70;3.00;;;16.70;99.90;;;;;;5024642;28;20141;-83
2022/06/04 09:58:51;;;;;;;4.07;2.70;;;17.00;99.90;;;;;;5008045;28;20065;-82
2022/06/04 10:01:23;;;;;;;4.95;2.50;;;17.00;99.90;;;;;;5028316;28;20033;-86
2022/06/04 10:07:05;;;;;;;6.15;2.72;;;17.10;99.90;;;;;;5012607;28;20480;-86
2022/06/04 10:12:20;;;;;;;6.60;3.03;;;17.60;99.90;;;;;;5012534;28;20057;-87
2022/06/04 10:14:59;;;;;;;5.00;2.80;;;17.70;99.90;;;;;;5010743;28;20369;-85
2022/06/04 10:17:37;;;;;;;7.43;3.00;;;17.60;99.90;;;;;;5024278;28;20543;-80
2022/06/04 10:20:04;;;;;;;7.93;3.25;;;17.70;99.90;;;;;;5022763;28;20045;-82
2022/06/04 10:22:29;;;;;;;8.05;2.78;;;17.40;99.90;;;;;;5006049;28;20050;-84
2022/06/04 10:24:58;;;;;;;10.80;2.88;;;17.40;99.90;;;;;;5008424;28;20038;-83
2022/06/04 10:27:52;;;;;;;8.90;2.60;;;17.60;99.90;;;;;;5025988;28;20103;-82
2022/06/04 10:30:48;;;;;;;6.80;2.75;;;17.90;99.90;;;;;;5003867;28;20060;-77
2022/06/04 10:33:29;;;;;;;7.18;2.75;;;18.10;99.90;;;;;;5009479;28;20053;-76
2022/06/04 10:36:02;;;;;;;6.75;2.65;;;18.10;99.90;;;;;;5004533;28;20124;-76
2022/06/04 10:38:46;;;;;;;6.57;2.90;;;18.20;99.90;;;;;;5030678;28;20155;-77
2022/06/04 10:41:17;;;;;;;4.90;2.88;;;18.10;99.90;;;;;;4993363;28;20048;-78
2022/06/04 10:44:14;;;;;;;6.80;3.38;;;17.80;99.90;;;;;;5007396;28;20045;-76
2022/06/04 10:46:43;;;;;;;4.25;2.78;;;17.90;99.90;;;;;;4984545;28;20501;-76
2022/06/04 10:49:30;;;;;;;10.30;3.40;;;18.30;99.90;;;;;;5013377;28;20456;-77
2022/06/04 10:52:30;;;;;;;6.32;3.25;;;18.30;99.90;;;;;;5009919;28;20048;-76
2022/06/04 10:55:20;;;;;;;8.27;3.33;;;18.10;99.90;;;;;;4992760;28;20155;-76
2022/06/04 10:57:56;;;;;;;4.22;2.67;;;18.10;99.90;;;;;;5005437;28;20057;-75
2022/06/04 11:00:52;;;;;;;7.40;3.10;;;18.60;99.90;;;;;;5009418;28;20892;-75
2022/06/04 11:03:45;;;;;;;4.75;2.80;;;18.90;99.90;;;;;;4970936;28;20055;-74
2022/06/04 11:06:19;;;;;;;5.10;2.80;;;18.70;99.90;;;;;;5007888;28;20455;-75
2022/06/04 11:09:03;;;;;;;4.53;2.50;;;18.50;99.90;;;;;;5010151;28;20052;-76
2022/06/04 11:11:51;;;;;;;6.10;2.97;;;18.60;99.90;;;;;;5009686;28;20048;-78
2022/06/04 11:14:34;;;;;;;6.20;2.95;;;19.10;99.90;;;;;;5041331;28;20037;-80
2022/06/04 11:17:07;;;;;;;5.82;2.70;;;19.00;99.90;;;;;;5019390;28;20053;-79
2022/06/04 11:20:11;;;;;;;5.40;2.92;;;19.20;99.90;;;;;;5028884;28;20042;-79
2022/06/04 11:22:50;;;;;;;4.47;2.75;;;18.90;99.90;;;;;;4991602;28;20050;-80
2022/06/04 11:25:32;;;;;;;4.95;2.72;;;19.00;99.90;;;;;;4970441;28;20117;-80
2022/06/04 11:28:05;;;;;;;7.18;2.97;;;19.00;99.90;;;;;;4991300;28;20052;-80
2022/06/04 11:30:46;;;;;;;6.22;2.88;;;18.90;99.90;;;;;;5006959;28;20050;-81
2022/06/04 11:33:30;;;;;;;6.85;2.80;;;18.90;99.90;;;;;;4991270;28;20041;-80
2022/06/04 11:36:13;;;;;;;7.72;3.20;;;18.80;99.90;;;;;;5008852;28;20092;-80
2022/06/04 11:39:18;;;;;;;6.75;3.10;;;18.80;99.90;;;;;;4977943;28;20081;-81
2022/06/04 11:42:02;;;;;;;4.43;2.80;;;19.30;99.90;;;;;;5010565;28;20446;-78
2022/06/04 11:45:04;;;;;;;6.20;3.03;;;19.60;99.90;;;;;;5002986;28;20055;-79
2022/06/04 11:47:46;;;;;;;6.03;2.80;;;19.70;99.90;;;;;;4989637;28;20104;-80
2022/06/04 11:50:38;;;;;;;7.10;2.97;;;20.00;99.90;;;;;;5006587;28;20042;-81
2022/06/04 11:53:15;;;;;;;7.55;2.90;;;19.70;99.90;;;;;;4948359;28;20259;-80
2022/06/04 11:55:49;;;;;;;6.47;2.90;;;19.30;99.90;;;;;;4931271;28;20050;-80
2022/06/04 11:58:41;;;;;;;6.03;3.03;;;19.70;99.90;;;;;;4947524;28;20201;-81
2022/06/04 12:01:14;;;;;;;7.97;3.10;;;19.80;99.90;;;;;;4946035;28;20098;-80
2022/06/04 12:03:53;;;;;;;8.63;3.10;;;20.00;99.90;;;;;;4933401;29;20155;-80
2022/06/04 12:06:38;;;;;;;7.28;2.92;;;20.10;99.90;;;;;;4931400;29;20046;-81
2022/06/04 12:09:34;;;;;;;6.72;3.08;;;19.90;99.90;;;;;;4949312;28;20069;-82
2022/06/04 12:12:33;;;;;;;7.45;2.67;;;20.10;99.90;;;;;;4928688;29;20494;-81
2022/06/04 12:15:25;;;;;;;6.40;2.88;;;20.10;99.90;;;;;;4924109;28;20122;-80
2022/06/04 12:17:58;;;;;;;5.25;2.92;;;20.00;99.90;;;;;;4944055;28;20067;-81
2022/06/04 12:26:49;;;;;;;7.22;2.90;;;20.00;99.90;;;;;;4952849;28;20119;-83
2022/06/04 12:30:00;;;;;;;7.65;2.88;;;20.60;99.90;;;;;;4967559;28;20053;-83
2022/06/04 12:32:30;;;;;;;4.20;2.80;;;20.20;99.90;;;;;;5014051;28;20569;-81
2022/06/04 12:35:15;;;;;;;9.43;3.25;;;20.40;99.90;;;;;;5007958;28;20146;-83
2022/06/04 12:37:46;;;;;;;5.82;2.92;;;20.40;99.90;;;;;;5018261;28;20083;-82
2022/06/04 12:40:23;;;;;;;5.60;3.08;;;20.50;99.90;;;;;;4998430;28;20049;-81
2022/06/04 12:43:14;;;;;;;7.15;3.17;;;20.30;99.90;;;;;;5011947;28;20080;-81
2022/06/04 12:45:45;;;;;;;9.18;3.25;;;20.40;99.90;;;;;;5029731;28;20120;-81
2022/06/04 12:48:29;;;;;;;8.10;3.30;;;20.60;99.90;;;;;;5034900;28;20045;-81
2022/06/04 12:51:09;;;;;;;7.40;3.30;;;20.20;99.90;;;;;;5013154;28;20369;-80
2022/06/04 12:53:49;;;;;;;7.80;3.00;;;20.10;99.90;;;;;;5010418;28;20433;-81
2022/06/04 12:56:24;;;;;;;9.32;3.35;;;20.30;99.90;;;;;;4999706;28;20041;-81
2022/06/04 12:58:54;;;;;;;7.15;2.97;;;20.40;99.90;;;;;;4985111;28;20045;-81
2022/06/04 13:01:19;;;;;;;6.85;3.00;;;20.70;99.90;;;;;;5029533;28;20129;-82
2022/06/04 13:04:01;;;;;;;8.95;3.05;;;20.90;99.90;;;;;;5010096;28;20462;-81
2022/06/04 13:06:34;;;;;;;6.22;2.78;;;20.30;99.90;;;;;;5032558;28;20033;-80
2022/06/04 13:09:02;;;;;;;9.13;3.40;;;20.50;99.90;;;;;;4997642;28;20077;-77
2022/06/04 13:12:03;;;;;;;9.98;3.30;;;20.30;99.90;;;;;;5013473;28;20491;-78
2022/06/04 13:14:46;;;;;;;6.82;3.13;;;20.80;99.90;;;;;;4987920;28;20041;-80
2022/06/04 13:17:30;;;;;;;7.32;2.70;;;21.20;99.90;;;;;;5022632;28;20088;-81
2022/06/04 13:20:21;;;;;;;9.35;3.00;;;21.10;99.90;;;;;;4989110;28;20057;-78
2022/06/04 13:22:52;;;;;;;10.45;3.17;;;21.50;99.90;;;;;;5023994;28;20049;-81
2022/06/04 13:25:26;;;;;;;7.20;2.80;;;21.20;99.90;;;;;;5030086;28;20107;-77
2022/06/04 13:27:54;;;;;;;8.85;3.30;;;21.00;99.90;;;;;;5015112;28;20029;-81
2022/06/04 13:30:34;;;;;;;5.63;2.90;;;21.00;99.90;;;;;;5026040;28;20037;-80
2022/06/04 13:33:08;;;;;;;8.10;3.30;;;20.80;99.90;;;;;;5007422;28;20133;-80
2022/06/04 13:35:45;;;;;;;8.88;3.15;;;20.90;99.90;;;;;;5001140;28;20046;-79
2022/06/04 13:38:28;;;;;;;5.97;3.00;;;20.80;99.90;;;;;;5004094;28;21082;-79
2022/06/04 13:41:00;;;;;;;8.95;3.13;;;20.80;99.90;;;;;;5011656;28;20081;-79
2022/06/04 13:43:26;;;;;;;9.98;2.92;;;20.50;99.90;;;;;;5000897;28;20038;-80
2022/06/04 13:45:52;;;;;;;8.73;3.10;;;21.20;99.90;;;;;;5006480;28;20043;-79
2022/06/04 13:48:26;;;;;;;9.00;2.88;;;20.70;99.90;;;;;;5002193;28;20045;-77
2022/06/04 13:50:55;;;;;;;7.35;3.13;;;20.70;99.90;;;;;;4995839;28;20034;-80
2022/06/04 13:53:24;;;;;;;6.72;2.78;;;21.10;99.90;;;;;;5012136;28;20053;-81
2022/06/04 13:55:54;;;;;;;6.10;2.85;;;21.00;99.90;;;;;;5009368;28;20100;-82
2022/06/04 13:58:25;;;;;;;7.03;3.03;;;21.20;99.90;;;;;;4972433;28;20046;-81
2022/06/04 14:01:11;;;;;;;8.20;3.00;;;21.70;99.90;;;;;;5009643;28;20071;-81
2022/06/04 14:03:46;;;;;;;5.85;2.53;;;21.20;99.90;;;;;;5013115;28;20041;-81
2022/06/04 14:06:15;;;;;;;7.05;2.78;;;21.30;99.90;;;;;;5016485;28;20055;-80
2022/06/04 14:08:54;;;;;;;11.10;3.15;;;21.40;99.90;;;;;;5013888;28;20076;-79
2022/06/04 14:11:34;;;;;;;9.07;3.03;;;21.30;99.90;;;;;;5012752;28;20112;-82
2022/06/04 14:14:25;;;;;;;8.10;3.00;;;21.50;99.90;;;;;;5011576;28;20476;-84
2022/06/04 14:17:05;;;;;;;7.97;3.08;;;21.60;99.90;;;;;;5003129;28;20064;-78